Time;durP1;ratioP1;P1;durP2;ratioP2;P2;SDS_P1;SDS_P2;PMS_P1;PMS_P2;Temp;Humidity;BMP_temperature;BMP_pressure;BME280_temperature;BME280_humidity;BME280_pressure;Samples;Min_cycle;Max_cycle;Signal;HPM_P1;HPM_P2
2023/10/29 00:00:40;;;;;;;9.95;4.57;;;;;;;;;;8108892;28;20048;-64
2023/10/29 00:04:41;;;;;;;10.50;5.43;;;;;;;;;;8110652;29;20164;-65
2023/10/29 00:08:41;;;;;;;10.80;5.13;;;;;;;;;;8110291;29;20275;-64
2023/10/29 00:12:41;;;;;;;6.15;2.97;;;;;;;;;;8104444;29;20024;-64
2023/10/29 00:16:41;;;;;;;5.47;1.60;;;;;;;;;;8108809;28;20067;-64
2023/10/29 00:20:41;;;;;;;1.48;1.23;;;;;;;;;;8110175;29;20042;-64
2023/10/29 00:24:42;;;;;;;2.42;1.10;;;;;;;;;;8111611;29;20027;-64
2023/10/29 00:28:42;;;;;;;2.40;1.02;;;;;;;;;;8112031;28;20039;-64
2023/10/29 00:32:42;;;;;;;1.87;0.93;;;;;;;;;;8111276;28;20397;-64
2023/10/29 00:36:42;;;;;;;2.95;1.05;;;;;;;;;;8111442;28;20279;-64
2023/10/29 00:40:42;;;;;;;6.00;1.70;;;;;;;;;;8112180;28;20031;-64
2023/10/29 00:44:43;;;;;;;3.42;1.10;;;;;;;;;;8114856;29;20011;-64
2023/10/29 00:48:43;;;;;;;2.00;1.10;;;;;;;;;;8113394;29;20029;-64
2023/10/29 00:52:43;;;;;;;1.45;1.00;;;;;;;;;;8113794;29;20214;-64
2023/10/29 00:56:44;;;;;;;1.15;0.82;;;;;;;;;;8112640;29;20039;-64
2023/10/29 01:00:44;;;;;;;1.83;0.83;;;;;;;;;;8115021;29;20122;-65
2023/10/29 01:04:45;;;;;;;2.00;0.90;;;;;;;;;;8113682;29;20320;-64
2023/10/29 01:08:45;;;;;;;1.70;1.10;;;;;;;;;;8109353;28;20027;-66
2023/10/29 01:12:45;;;;;;;3.65;1.00;;;;;;;;;;8114791;29;20023;-65
2023/10/29 01:16:45;;;;;;;0.90;0.90;;;;;;;;;;8116224;29;20491;-64
2023/10/29 01:20:46;;;;;;;2.92;1.02;;;;;;;;;;8112417;29;20035;-64
2023/10/29 01:24:46;;;;;;;4.05;1.00;;;;;;;;;;8111145;29;20067;-64
2023/10/29 01:28:46;;;;;;;1.88;1.20;;;;;;;;;;8112278;29;20032;-64
2023/10/29 01:32:46;;;;;;;3.08;1.25;;;;;;;;;;8111359;28;20078;-64
2023/10/29 01:36:46;;;;;;;4.70;1.80;;;;;;;;;;8113285;29;20024;-64
2023/10/29 01:40:47;;;;;;;6.13;1.98;;;;;;;;;;8115027;29;20028;-65
2023/10/29 01:44:48;;;;;;;6.20;2.17;;;;;;;;;;8114440;29;20031;-64
2023/10/29 01:48:48;;;;;;;4.33;1.57;;;;;;;;;;8112851;28;20046;-64
2023/10/29 01:52:48;;;;;;;1.95;1.10;;;;;;;;;;8113854;28;20297;-64
2023/10/29 01:56:49;;;;;;;3.95;1.50;;;;;;;;;;8117556;29;20089;-64
2023/10/29 02:00:54;;;;;;;1.27;1.10;;;;;;;;;;8112712;28;20058;-64
2023/10/29 02:04:55;;;;;;;1.67;0.98;;;;;;;;;;8109952;28;20412;-64
2023/10/29 02:08:56;;;;;;;2.13;1.08;;;;;;;;;;8105855;29;20031;-64
2023/10/29 02:12:57;;;;;;;4.43;0.98;;;;;;;;;;8120298;28;20028;-64
2023/10/29 02:16:57;;;;;;;2.75;1.05;;;;;;;;;;8110265;28;20074;-64
2023/10/29 02:20:57;;;;;;;0.82;0.80;;;;;;;;;;8111309;29;20027;-65
2023/10/29 02:24:57;;;;;;;1.67;0.95;;;;;;;;;;8111471;29;20039;-65
2023/10/29 02:28:57;;;;;;;1.92;0.75;;;;;;;;;;8107062;29;20100;-64
2023/10/29 02:32:58;;;;;;;2.60;1.00;;;;;;;;;;8109680;28;21561;-64
2023/10/29 02:36:58;;;;;;;1.10;0.80;;;;;;;;;;8109293;29;20359;-64
2023/10/29 02:40:58;;;;;;;1.88;0.80;;;;;;;;;;8112747;29;20291;-64
2023/10/29 02:44:58;;;;;;;2.70;1.00;;;;;;;;;;8111677;28;20019;-64
2023/10/29 02:48:59;;;;;;;3.53;0.98;;;;;;;;;;8110259;29;20031;-65
2023/10/29 02:52:59;;;;;;;2.13;0.80;;;;;;;;;;8114761;28;20050;-65
2023/10/29 02:57:00;;;;;;;3.60;0.80;;;;;;;;;;8111533;29;20559;-64
2023/10/29 03:01:07;;;;;;;3.22;0.90;;;;;;;;;;8111165;28;20170;-64
2023/10/29 03:05:09;;;;;;;2.78;1.00;;;;;;;;;;8111032;29;20464;-64
2023/10/29 03:09:09;;;;;;;6.25;0.90;;;;;;;;;;8110942;29;20042;-65
2023/10/29 03:13:10;;;;;;;4.68;0.90;;;;;;;;;;8113267;29;20015;-65
2023/10/29 03:17:10;;;;;;;2.95;1.00;;;;;;;;;;8131990;28;20039;-65
2023/10/29 03:21:13;;;;;;;2.10;0.90;;;;;;;;;;8120796;29;20047;-65
2023/10/29 03:25:14;;;;;;;2.15;1.00;;;;;;;;;;8121922;29;20516;-65
2023/10/29 03:29:14;;;;;;;1.23;0.90;;;;;;;;;;8119727;28;20032;-65
2023/10/29 03:33:14;;;;;;;1.83;0.75;;;;;;;;;;8113922;28;20879;-65
2023/10/29 03:37:15;;;;;;;1.58;0.90;;;;;;;;;;8119599;28;20103;-65
2023/10/29 03:41:20;;;;;;;2.67;1.00;;;;;;;;;;8111094;29;20024;-64
2023/10/29 03:45:20;;;;;;;2.45;0.80;;;;;;;;;;8114620;29;20034;-65
2023/10/29 03:49:20;;;;;;;1.55;0.82;;;;;;;;;;8117848;29;20146;-65
2023/10/29 03:53:20;;;;;;;1.67;0.90;;;;;;;;;;8117100;29;20484;-64
2023/10/29 03:57:20;;;;;;;1.70;0.90;;;;;;;;;;8113956;29;20411;-65
2023/10/29 04:01:21;;;;;;;2.25;1.00;;;;;;;;;;8113958;28;20039;-65
2023/10/29 04:05:21;;;;;;;1.95;0.90;;;;;;;;;;8114903;28;20050;-65
2023/10/29 04:09:22;;;;;;;2.40;0.80;;;;;;;;;;8114855;29;20082;-65
2023/10/29 04:13:23;;;;;;;3.35;1.00;;;;;;;;;;8113061;29;20128;-65
2023/10/29 04:17:23;;;;;;;2.35;1.00;;;;;;;;;;8113941;29;20219;-65
2023/10/29 04:21:23;;;;;;;2.17;0.98;;;;;;;;;;8112031;29;20484;-65
2023/10/29 04:25:24;;;;;;;1.30;0.80;;;;;;;;;;8112751;29;20133;-65
2023/10/29 04:29:24;;;;;;;2.83;0.90;;;;;;;;;;8109907;29;20032;-65
2023/10/29 04:33:25;;;;;;;2.08;1.10;;;;;;;;;;8110327;28;20035;-65
2023/10/29 04:37:25;;;;;;;1.38;1.00;;;;;;;;;;8110920;29;20026;-65
2023/10/29 04:41:25;;;;;;;4.10;0.90;;;;;;;;;;8110852;28;20027;-65
2023/10/29 04:45:25;;;;;;;3.50;1.13;;;;;;;;;;8115052;28;20451;-64
2023/10/29 04:49:26;;;;;;;2.15;0.70;;;;;;;;;;8112047;29;20027;-64
2023/10/29 04:53:26;;;;;;;2.13;1.00;;;;;;;;;;8115482;29;20039;-64
2023/10/29 04:57:27;;;;;;;2.17;0.93;;;;;;;;;;8114982;28;20059;-64
2023/10/29 05:01:27;;;;;;;3.42;0.90;;;;;;;;;;8109859;28;20161;-64
2023/10/29 05:05:28;;;;;;;3.28;1.00;;;;;;;;;;8115467;29;20146;-64
2023/10/29 05:09:28;;;;;;;3.17;1.20;;;;;;;;;;8112085;28;20028;-64
2023/10/29 05:13:29;;;;;;;2.45;0.90;;;;;;;;;;8112510;29;20048;-64
2023/10/29 05:17:29;;;;;;;6.50;2.35;;;;;;;;;;8114631;28;20107;-64
2023/10/29 05:21:30;;;;;;;1.75;0.98;;;;;;;;;;8115815;29;20158;-64
2023/10/29 05:25:30;;;;;;;2.38;0.85;;;;;;;;;;8113316;29;21319;-64
2023/10/29 05:29:32;;;;;;;3.30;0.90;;;;;;;;;;8112470;29;20032;-64
2023/10/29 05:33:33;;;;;;;2.15;0.90;;;;;;;;;;8110381;28;20038;-64
2023/10/29 05:37:34;;;;;;;5.18;0.95;;;;;;;;;;8111964;29;20115;-63
2023/10/29 05:41:34;;;;;;;1.70;0.90;;;;;;;;;;8104227;29;20082;-63
2023/10/29 05:45:34;;;;;;;1.20;0.93;;;;;;;;;;8104834;28;20028;-63
2023/10/29 05:49:34;;;;;;;3.42;1.00;;;;;;;;;;8112813;29;20258;-63
2023/10/29 05:53:35;;;;;;;3.40;1.10;;;;;;;;;;8114962;28;20113;-63
2023/10/29 05:57:35;;;;;;;3.72;1.10;;;;;;;;;;8111474;29;20444;-65
2023/10/29 06:01:37;;;;;;;8.20;1.25;;;;;;;;;;8109757;28;20044;-63
2023/10/29 06:05:37;;;;;;;3.53;1.05;;;;;;;;;;8111993;29;20521;-64
2023/10/29 06:09:38;;;;;;;1.55;0.95;;;;;;;;;;8098888;29;20039;-63
2023/10/29 06:13:38;;;;;;;0.93;0.73;;;;;;;;;;8102724;28;20028;-63
2023/10/29 06:17:38;;;;;;;1.90;0.80;;;;;;;;;;8107783;28;20283;-63
2023/10/29 06:21:39;;;;;;;1.55;0.80;;;;;;;;;;8101306;29;20035;-64
2023/10/29 06:25:40;;;;;;;0.77;0.77;;;;;;;;;;8111388;28;20023;-64
2023/10/29 06:29:40;;;;;;;0.82;0.80;;;;;;;;;;8106707;29;20028;-63
2023/10/29 06:33:41;;;;;;;1.55;0.80;;;;;;;;;;8110315;28;20073;-63
2023/10/29 06:37:41;;;;;;;1.52;0.90;;;;;;;;;;8111325;28;20031;-63
2023/10/29 06:41:41;;;;;;;2.57;0.90;;;;;;;;;;8104580;29;20032;-64
2023/10/29 06:45:42;;;;;;;2.17;1.00;;;;;;;;;;8109714;28;20043;-64
2023/10/29 06:49:42;;;;;;;1.92;0.88;;;;;;;;;;8108371;29;20110;-64
2023/10/29 06:53:42;;;;;;;0.80;0.63;;;;;;;;;;8113149;28;20143;-64
2023/10/29 06:57:43;;;;;;;0.60;0.57;;;;;;;;;;8114299;28;20035;-64
2023/10/29 07:01:43;;;;;;;0.90;0.80;;;;;;;;;;8117005;28;20036;-64
2023/10/29 07:05:44;;;;;;;1.50;0.90;;;;;;;;;;8113574;28;20279;-64
2023/10/29 07:09:44;;;;;;;1.00;0.90;;;;;;;;;;8114779;29;20024;-64
2023/10/29 07:13:45;;;;;;;2.70;1.10;;;;;;;;;;8114916;28;20030;-64
2023/10/29 07:17:45;;;;;;;2.57;1.10;;;;;;;;;;8116105;28;20078;-64
2023/10/29 07:21:45;;;;;;;1.38;0.85;;;;;;;;;;8116923;28;20288;-63
2023/10/29 07:25:45;;;;;;;3.97;1.10;;;;;;;;;;8117901;28;20027;-64
2023/10/29 07:29:45;;;;;;;1.38;0.90;;;;;;;;;;8115978;29;20215;-64
2023/10/29 07:33:46;;;;;;;2.35;1.00;;;;;;;;;;8111115;28;20071;-63
2023/10/29 07:37:46;;;;;;;2.87;1.00;;;;;;;;;;8116995;28;20039;-64
2023/10/29 07:41:46;;;;;;;2.55;0.93;;;;;;;;;;8107786;28;20287;-64
2023/10/29 07:45:47;;;;;;;2.55;0.90;;;;;;;;;;8111221;28;20154;-64
2023/10/29 07:49:48;;;;;;;2.45;1.02;;;;;;;;;;8111423;29;20024;-64
2023/10/29 07:53:49;;;;;;;2.22;1.05;;;;;;;;;;8113421;29;20051;-64
2023/10/29 07:57:49;;;;;;;1.83;1.20;;;;;;;;;;8115249;29;20042;-63
2023/10/29 08:01:50;;;;;;;1.80;1.20;;;;;;;;;;8105700;28;20039;-64
2023/10/29 08:05:51;;;;;;;2.20;1.27;;;;;;;;;;8109334;29;20074;-63
2023/10/29 08:09:51;;;;;;;4.72;1.17;;;;;;;;;;8108989;29;20035;-64
2023/10/29 08:13:51;;;;;;;2.92;0.93;;;;;;;;;;8110736;29;20039;-64
2023/10/29 08:17:51;;;;;;;2.28;0.90;;;;;;;;;;8118724;28;20840;-64
2023/10/29 08:21:51;;;;;;;1.23;0.80;;;;;;;;;;8115829;28;20024;-64
2023/10/29 08:25:52;;;;;;;1.52;0.80;;;;;;;;;;8115234;29;20032;-64
2023/10/29 08:29:53;;;;;;;3.25;1.15;;;;;;;;;;8108666;29;20067;-64
2023/10/29 08:33:54;;;;;;;2.97;0.97;;;;;;;;;;8116943;29;20044;-64
2023/10/29 08:37:55;;;;;;;1.35;0.90;;;;;;;;;;8115826;28;20881;-64
2023/10/29 08:41:56;;;;;;;4.47;0.80;;;;;;;;;;8115931;29;20563;-64
2023/10/29 08:45:56;;;;;;;1.60;1.00;;;;;;;;;;8114354;29;20039;-64
2023/10/29 08:49:56;;;;;;;4.10;0.90;;;;;;;;;;8115050;29;20030;-64
2023/10/29 08:53:57;;;;;;;1.45;0.73;;;;;;;;;;8113711;29;20032;-64
2023/10/29 08:57:57;;;;;;;1.42;0.88;;;;;;;;;;8115156;28;20058;-64
2023/10/29 09:01:57;;;;;;;1.60;0.73;;;;;;;;;;8106055;28;20175;-64
2023/10/29 09:06:03;;;;;;;2.05;0.75;;;;;;;;;;8116915;29;20035;-64
2023/10/29 09:10:04;;;;;;;1.13;0.80;;;;;;;;;;8114516;29;20030;-64
2023/10/29 09:14:07;;;;;;;1.45;0.85;;;;;;;;;;8113226;28;20043;-64
2023/10/29 09:18:07;;;;;;;2.50;0.80;;;;;;;;;;8111561;29;20082;-64
2023/10/29 09:22:07;;;;;;;0.70;0.70;;;;;;;;;;8112285;28;20032;-64
2023/10/29 09:26:07;;;;;;;2.13;0.73;;;;;;;;;;8108677;29;20404;-64
2023/10/29 09:30:08;;;;;;;2.42;0.70;;;;;;;;;;8108815;28;20024;-65
2023/10/29 09:34:08;;;;;;;1.85;0.70;;;;;;;;;;8107520;28;20815;-64
2023/10/29 09:38:08;;;;;;;1.20;0.73;;;;;;;;;;8110364;29;20027;-64
2023/10/29 09:42:09;;;;;;;1.13;0.70;;;;;;;;;;8111521;29;20019;-65
2023/10/29 09:46:10;;;;;;;1.42;0.80;;;;;;;;;;8109570;28;20917;-63
2023/10/29 09:50:11;;;;;;;1.20;0.70;;;;;;;;;;8108334;29;20031;-63
2023/10/29 09:54:12;;;;;;;1.95;0.60;;;;;;;;;;8108054;29;20020;-64
2023/10/29 09:58:12;;;;;;;2.03;0.80;;;;;;;;;;8109756;29;20047;-64
2023/10/29 10:02:13;;;;;;;1.07;0.73;;;;;;;;;;8108047;28;20040;-64
2023/10/29 10:06:14;;;;;;;0.90;0.70;;;;;;;;;;8107769;29;20455;-64
2023/10/29 10:10:15;;;;;;;0.77;0.70;;;;;;;;;;8105405;29;20024;-64
2023/10/29 10:14:24;;;;;;;1.65;0.90;;;;;;;;;;8108953;28;20034;-64
2023/10/29 10:18:24;;;;;;;2.08;1.65;;;;;;;;;;8109238;28;20035;-64
2023/10/29 10:22:36;;;;;;;1.27;0.73;;;;;;;;;;8110773;29;20039;-64
2023/10/29 10:26:38;;;;;;;0.88;0.63;;;;;;;;;;8116292;29;20388;-64
2023/10/29 10:30:39;;;;;;;0.80;0.60;;;;;;;;;;8117760;28;20083;-64
2023/10/29 10:34:49;;;;;;;2.30;0.93;;;;;;;;;;8115529;29;20028;-64
2023/10/29 10:38:52;;;;;;;1.00;0.60;;;;;;;;;;8120719;29;20570;-64
2023/10/29 10:42:53;;;;;;;0.53;0.53;;;;;;;;;;8112844;29;20032;-64
2023/10/29 10:46:54;;;;;;;1.05;0.60;;;;;;;;;;8118614;29;20044;-64
2023/10/29 10:50:55;;;;;;;0.50;0.50;;;;;;;;;;8117447;29;20522;-64
2023/10/29 10:54:56;;;;;;;2.20;0.60;;;;;;;;;;8115430;29;20028;-64
2023/10/29 10:58:58;;;;;;;0.50;0.50;;;;;;;;;;8113496;28;20954;-63
2023/10/29 11:02:59;;;;;;;0.50;0.50;;;;;;;;;;8115703;28;20040;-64
2023/10/29 11:06:59;;;;;;;0.52;0.52;;;;;;;;;;8117748;28;20027;-63
2023/10/29 11:11:00;;;;;;;1.02;0.60;;;;;;;;;;8119374;29;20064;-64
2023/10/29 11:15:17;;;;;;;0.55;0.55;;;;;;;;;;8114915;29;20696;-63
2023/10/29 11:19:36;;;;;;;0.68;0.60;;;;;;;;;;8116590;29;20047;-64
2023/10/29 11:23:38;;;;;;;0.93;0.73;;;;;;;;;;8118448;29;20027;-64
2023/10/29 11:27:40;;;;;;;0.60;0.60;;;;;;;;;;8119861;29;20674;-64
2023/10/29 11:31:44;;;;;;;0.45;0.45;;;;;;;;;;8115453;28;20404;-64
2023/10/29 11:35:44;;;;;;;0.52;0.52;;;;;;;;;;8109008;29;20036;-64
2023/10/29 11:39:45;;;;;;;0.60;0.60;;;;;;;;;;8109852;29;20039;-64
2023/10/29 11:43:45;;;;;;;0.47;0.47;;;;;;;;;;8100542;29;20035;-64
2023/10/29 11:48:04;;;;;;;0.60;0.60;;;;;;;;;;8100733;29;20046;-64
2023/10/29 11:52:06;;;;;;;0.60;0.60;;;;;;;;;;8096765;28;20039;-64
2023/10/29 11:56:09;;;;;;;0.55;0.40;;;;;;;;;;8102154;29;21008;-64
2023/10/29 12:00:10;;;;;;;3.83;0.88;;;;;;;;;;8096985;28;20508;-63
2023/10/29 12:04:12;;;;;;;0.50;0.50;;;;;;;;;;8107148;29;20035;-63
2023/10/29 12:08:12;;;;;;;0.60;0.60;;;;;;;;;;8114642;29;20034;-63
2023/10/29 12:12:13;;;;;;;0.40;0.40;;;;;;;;;;8095967;29;20042;-63
2023/10/29 12:16:14;;;;;;;0.65;0.60;;;;;;;;;;8099998;28;20058;-63
2023/10/29 12:20:21;;;;;;;0.60;0.60;;;;;;;;;;8096214;29;20035;-63
2023/10/29 12:24:21;;;;;;;10.20;0.70;;;;;;;;;;8099149;29;20031;-63
2023/10/29 12:28:22;;;;;;;0.40;0.32;;;;;;;;;;8103743;29;20042;-63
2023/10/29 12:32:23;;;;;;;0.40;0.40;;;;;;;;;;8100028;28;20036;-63
2023/10/29 12:36:24;;;;;;;0.68;0.35;;;;;;;;;;8106348;29;20028;-63
2023/10/29 12:40:25;;;;;;;0.40;0.40;;;;;;;;;;8095259;29;20034;-63
2023/10/29 12:44:25;;;;;;;0.45;0.45;;;;;;;;;;8096286;29;20110;-64
2023/10/29 12:48:25;;;;;;;0.40;0.40;;;;;;;;;;8106240;28;20376;-64
2023/10/29 12:52:26;;;;;;;1.30;0.40;;;;;;;;;;8102535;29;20029;-64
2023/10/29 12:56:27;;;;;;;0.30;0.30;;;;;;;;;;8100155;29;20271;-64
2023/10/29 13:00:30;;;;;;;0.30;0.30;;;;;;;;;;8043586;28;22350;-64
2023/10/29 13:04:30;;;;;;;0.30;0.30;;;;;;;;;;8034029;28;20094;-64
2023/10/29 13:08:30;;;;;;;0.30;0.30;;;;;;;;;;8034671;29;21988;-64
2023/10/29 13:12:30;;;;;;;0.40;0.40;;;;;;;;;;8030538;29;20115;-64
2023/10/29 13:16:30;;;;;;;2.15;1.80;;;;;;;;;;8032270;28;20059;-64
2023/10/29 13:20:33;;;;;;;2.08;1.70;;;;;;;;;;8032426;29;20044;-64
2023/10/29 13:24:33;;;;;;;2.15;0.90;;;;;;;;;;8039902;28;20883;-64
2023/10/29 13:28:34;;;;;;;0.70;0.70;;;;;;;;;;8040806;29;20027;-63
2023/10/29 13:32:34;;;;;;;1.40;0.80;;;;;;;;;;8031914;28;20043;-63
2023/10/29 13:36:37;;;;;;;0.60;0.60;;;;;;;;;;8030556;29;20614;-63
2023/10/29 13:40:38;;;;;;;2.43;0.47;;;;;;;;;;8042685;29;20032;-64
2023/10/29 13:44:38;;;;;;;0.65;0.55;;;;;;;;;;8047120;29;20043;-64
2023/10/29 13:48:38;;;;;;;0.50;0.50;;;;;;;;;;8039992;28;20040;-64
2023/10/29 13:52:39;;;;;;;0.80;0.80;;;;;;;;;;8042123;29;21447;-64
2023/10/29 13:56:39;;;;;;;1.40;1.30;;;;;;;;;;8049261;29;20218;-64
2023/10/29 14:00:39;;;;;;;1.02;0.75;;;;;;;;;;8040950;29;20300;-64
2023/10/29 14:04:40;;;;;;;0.63;0.50;;;;;;;;;;8047078;28;20027;-63
2023/10/29 14:08:40;;;;;;;0.70;0.70;;;;;;;;;;8046548;29;20114;-63
2023/10/29 14:12:44;;;;;;;1.27;0.60;;;;;;;;;;8040053;29;20051;-63
2023/10/29 14:16:45;;;;;;;0.50;0.50;;;;;;;;;;8044542;28;20043;-63
2023/10/29 14:20:45;;;;;;;2.33;0.40;;;;;;;;;;8040605;29;20067;-63
2023/10/29 14:24:47;;;;;;;0.60;0.60;;;;;;;;;;8041892;29;20032;-63
2023/10/29 14:28:47;;;;;;;1.00;0.50;;;;;;;;;;8030255;29;20031;-64
2023/10/29 14:32:47;;;;;;;0.60;0.60;;;;;;;;;;8028962;28;20051;-63
2023/10/29 14:36:48;;;;;;;1.00;0.85;;;;;;;;;;8027912;29;21536;-63
2023/10/29 14:40:50;;;;;;;0.88;0.70;;;;;;;;;;8024511;29;20038;-64
2023/10/29 14:44:50;;;;;;;0.50;0.50;;;;;;;;;;8021743;29;20233;-63
2023/10/29 14:48:50;;;;;;;2.95;1.40;;;;;;;;;;8031721;28;20170;-63
2023/10/29 14:52:50;;;;;;;1.85;0.88;;;;;;;;;;8043059;29;20441;-63
2023/10/29 14:56:50;;;;;;;0.50;0.50;;;;;;;;;;8033513;29;20062;-64
2023/10/29 15:00:51;;;;;;;0.55;0.50;;;;;;;;;;8047549;28;20044;-64
2023/10/29 15:04:55;;;;;;;0.98;0.50;;;;;;;;;;8038729;29;20317;-64
2023/10/29 15:08:55;;;;;;;0.77;0.60;;;;;;;;;;8043240;29;20031;-64
2023/10/29 15:12:55;;;;;;;0.95;0.60;;;;;;;;;;8042888;28;20035;-64
2023/10/29 15:16:56;;;;;;;2.20;0.60;;;;;;;;;;8049673;28;20420;-64
2023/10/29 15:21:05;;;;;;;0.60;0.60;;;;;;;;;;8050309;29;20434;-64
2023/10/29 15:25:06;;;;;;;0.50;0.50;;;;;;;;;;8050601;29;20044;-64
2023/10/29 15:29:06;;;;;;;0.75;0.55;;;;;;;;;;8051976;29;20034;-64
2023/10/29 15:33:07;;;;;;;1.43;0.50;;;;;;;;;;8046906;29;20503;-64
2023/10/29 15:37:07;;;;;;;1.63;0.45;;;;;;;;;;8044740;29;21742;-64
2023/10/29 15:41:08;;;;;;;1.90;0.55;;;;;;;;;;8047556;29;20031;-64
2023/10/29 15:45:09;;;;;;;0.73;0.50;;;;;;;;;;8049793;28;20020;-64
2023/10/29 15:49:09;;;;;;;0.60;0.60;;;;;;;;;;8047628;29;20028;-64
2023/10/29 15:53:09;;;;;;;0.70;0.70;;;;;;;;;;8040708;29;20363;-64
2023/10/29 15:57:09;;;;;;;2.03;0.68;;;;;;;;;;8044514;29;20032;-64
2023/10/29 16:01:19;;;;;;;1.30;1.10;;;;;;;;;;8028244;28;20035;-64
2023/10/29 16:05:19;;;;;;;0.60;0.60;;;;;;;;;;8027219;29;20158;-63
2023/10/29 16:09:20;;;;;;;0.75;0.60;;;;;;;;;;8025505;29;20036;-63
2023/10/29 16:13:20;;;;;;;1.45;0.98;;;;;;;;;;8026923;29;20998;-64
2023/10/29 16:17:20;;;;;;;2.53;1.00;;;;;;;;;;8025013;29;20296;-64
2023/10/29 16:21:20;;;;;;;1.25;1.15;;;;;;;;;;8022685;28;20034;-64
2023/10/29 16:25:21;;;;;;;0.73;0.70;;;;;;;;;;8026878;29;20142;-64
2023/10/29 16:29:21;;;;;;;1.00;1.00;;;;;;;;;;8019126;29;20142;-64
2023/10/29 16:33:21;;;;;;;1.55;0.80;;;;;;;;;;8021512;29;20070;-64
2023/10/29 16:37:22;;;;;;;0.73;0.70;;;;;;;;;;8021020;29;20118;-64
2023/10/29 16:41:22;;;;;;;1.65;0.73;;;;;;;;;;8026427;29;20339;-64
2023/10/29 16:45:23;;;;;;;1.95;0.70;;;;;;;;;;8026641;28;20023;-64
2023/10/29 16:49:23;;;;;;;0.80;0.80;;;;;;;;;;8024437;29;20024;-64
2023/10/29 16:53:23;;;;;;;0.93;0.75;;;;;;;;;;8029760;29;20036;-64
2023/10/29 16:57:23;;;;;;;0.70;0.70;;;;;;;;;;8023761;29;20043;-64
2023/10/29 17:01:24;;;;;;;1.08;0.57;;;;;;;;;;8024473;28;20047;-64
2023/10/29 17:05:24;;;;;;;0.50;0.50;;;;;;;;;;8025532;29;20031;-64
2023/10/29 17:09:28;;;;;;;0.70;0.70;;;;;;;;;;8025187;29;20036;-64
2023/10/29 17:13:29;;;;;;;0.65;0.63;;;;;;;;;;8028879;29;20162;-64
2023/10/29 17:17:29;;;;;;;3.38;0.80;;;;;;;;;;8023093;28;20177;-64
2023/10/29 17:21:29;;;;;;;0.60;0.57;;;;;;;;;;8019782;29;22175;-64
2023/10/29 17:25:33;;;;;;;1.00;0.80;;;;;;;;;;8021675;29;20027;-64
2023/10/29 17:29:34;;;;;;;0.60;0.55;;;;;;;;;;8019395;29;20058;-64
2023/10/29 17:33:34;;;;;;;0.70;0.70;;;;;;;;;;8020871;28;20040;-64
2023/10/29 17:37:35;;;;;;;1.10;0.60;;;;;;;;;;8021939;29;20194;-64
2023/10/29 17:41:35;;;;;;;1.63;0.60;;;;;;;;;;8023328;28;20425;-64
2023/10/29 17:45:38;;;;;;;1.67;0.70;;;;;;;;;;8020307;28;20047;-64
2023/10/29 17:49:39;;;;;;;0.90;0.52;;;;;;;;;;8025204;29;20852;-64
2023/10/29 17:53:46;;;;;;;1.23;0.60;;;;;;;;;;8030867;29;20036;-64
2023/10/29 17:57:46;;;;;;;2.42;0.50;;;;;;;;;;8026491;29;20053;-64
2023/10/29 18:01:47;;;;;;;1.45;0.70;;;;;;;;;;8025356;28;20050;-64
2023/10/29 18:05:47;;;;;;;3.78;0.85;;;;;;;;;;8029025;29;20031;-64
2023/10/29 18:09:47;;;;;;;2.25;0.60;;;;;;;;;;8026514;29;20120;-64
2023/10/29 18:13:47;;;;;;;2.87;0.73;;;;;;;;;;8029976;29;20032;-64
2023/10/29 18:17:48;;;;;;;0.70;0.70;;;;;;;;;;8026974;28;20045;-64
2023/10/29 18:21:49;;;;;;;1.73;0.80;;;;;;;;;;8027521;29;20038;-64
2023/10/29 18:25:49;;;;;;;3.20;0.80;;;;;;;;;;8026195;29;20031;-64
2023/10/29 18:29:49;;;;;;;1.50;0.80;;;;;;;;;;8025378;29;20028;-64
2023/10/29 18:33:50;;;;;;;2.55;0.70;;;;;;;;;;8026142;28;20067;-64
2023/10/29 18:37:51;;;;;;;3.30;0.80;;;;;;;;;;8029277;29;20142;-64
2023/10/29 18:41:51;;;;;;;2.85;0.88;;;;;;;;;;8025755;29;20114;-64
2023/10/29 18:45:51;;;;;;;4.05;0.80;;;;;;;;;;8026320;28;20035;-64
2023/10/29 18:49:51;;;;;;;1.52;0.70;;;;;;;;;;8029474;29;20140;-64
2023/10/29 18:53:52;;;;;;;4.72;0.70;;;;;;;;;;8030687;28;20028;-64
2023/10/29 18:57:52;;;;;;;2.05;0.70;;;;;;;;;;8030678;29;21084;-64
2023/10/29 19:01:53;;;;;;;1.60;0.65;;;;;;;;;;8028981;28;20047;-64
2023/10/29 19:05:53;;;;;;;1.88;0.70;;;;;;;;;;8029328;29;20143;-64
2023/10/29 19:09:54;;;;;;;2.83;0.90;;;;;;;;;;8032883;29;21836;-64
2023/10/29 19:13:54;;;;;;;2.77;1.10;;;;;;;;;;8031911;29;20036;-64
2023/10/29 19:17:54;;;;;;;1.83;0.63;;;;;;;;;;8027877;29;20323;-64
2023/10/29 19:21:54;;;;;;;2.20;0.80;;;;;;;;;;8027687;29;20031;-64
2023/10/29 19:25:56;;;;;;;2.97;0.90;;;;;;;;;;8024563;29;20196;-64
2023/10/29 19:29:57;;;;;;;2.05;0.82;;;;;;;;;;8031942;29;20055;-64
2023/10/29 19:33:57;;;;;;;3.95;0.95;;;;;;;;;;8028631;28;20109;-64
2023/10/29 19:37:57;;;;;;;2.78;0.70;;;;;;;;;;8032044;29;20094;-64
2023/10/29 19:41:58;;;;;;;1.60;0.80;;;;;;;;;;8030396;29;20039;-64
2023/10/29 19:45:58;;;;;;;1.98;0.93;;;;;;;;;;8020887;28;20047;-65
2023/10/29 19:49:59;;;;;;;6.30;0.77;;;;;;;;;;8035917;29;20031;-64
2023/10/29 19:54:00;;;;;;;5.97;1.10;;;;;;;;;;8046329;29;20158;-64
2023/10/29 19:58:00;;;;;;;1.05;0.73;;;;;;;;;;8033004;29;20715;-64
2023/10/29 20:02:00;;;;;;;2.78;0.80;;;;;;;;;;8032482;28;20059;-64
2023/10/29 20:06:07;;;;;;;2.97;1.17;;;;;;;;;;8034399;29;20030;-64
2023/10/29 20:10:08;;;;;;;5.57;0.93;;;;;;;;;;8032939;29;20035;-64
2023/10/29 20:14:10;;;;;;;2.65;1.05;;;;;;;;;;8032185;28;20521;-64
2023/10/29 20:18:10;;;;;;;2.35;0.90;;;;;;;;;;8029246;28;20613;-64
2023/10/29 20:22:10;;;;;;;2.42;1.00;;;;;;;;;;8027527;29;20142;-64
2023/10/29 20:26:17;;;;;;;3.88;1.13;;;;;;;;;;8030038;29;20506;-64
2023/10/29 20:30:17;;;;;;;2.72;0.95;;;;;;;;;;8030107;28;20126;-64
2023/10/29 20:34:18;;;;;;;6.40;1.40;;;;;;;;;;8030917;29;20164;-65
2023/10/29 20:38:18;;;;;;;6.83;1.00;;;;;;;;;;8030550;29;20271;-65
2023/10/29 20:42:18;;;;;;;3.43;0.93;;;;;;;;;;8032462;29;20306;-64
2023/10/29 20:46:19;;;;;;;4.75;0.80;;;;;;;;;;8032267;28;20707;-64
2023/10/29 20:50:19;;;;;;;1.75;0.82;;;;;;;;;;8029640;29;20088;-64
2023/10/29 20:54:20;;;;;;;4.03;1.17;;;;;;;;;;8028714;29;20046;-64
2023/10/29 20:58:20;;;;;;;3.33;1.17;;;;;;;;;;8031272;29;20027;-65
2023/10/29 21:02:20;;;;;;;3.35;0.90;;;;;;;;;;8029872;28;20298;-65
2023/10/29 21:06:20;;;;;;;2.00;0.80;;;;;;;;;;8029584;29;20963;-64
2023/10/29 21:10:21;;;;;;;4.72;1.20;;;;;;;;;;8029230;29;20023;-64
2023/10/29 21:14:21;;;;;;;4.95;1.25;;;;;;;;;;8029321;29;20107;-64
2023/10/29 21:18:22;;;;;;;4.43;1.05;;;;;;;;;;8026454;29;20130;-64
2023/10/29 21:22:23;;;;;;;2.15;0.90;;;;;;;;;;8037328;28;20186;-64
2023/10/29 21:26:23;;;;;;;3.22;1.00;;;;;;;;;;8027647;29;20520;-64
2023/10/29 21:30:24;;;;;;;3.50;1.20;;;;;;;;;;8050536;28;20815;-65
2023/10/29 21:34:25;;;;;;;4.03;1.35;;;;;;;;;;8046863;29;21083;-65
2023/10/29 21:38:25;;;;;;;2.33;1.40;;;;;;;;;;8045303;29;20055;-65
2023/10/29 21:42:26;;;;;;;5.35;1.08;;;;;;;;;;8048032;29;20078;-64
2023/10/29 21:46:26;;;;;;;3.33;0.88;;;;;;;;;;8050908;28;20170;-65
2023/10/29 21:50:26;;;;;;;6.43;1.10;;;;;;;;;;8046539;29;20015;-64
2023/10/29 21:54:27;;;;;;;2.75;0.93;;;;;;;;;;8048360;29;20031;-64
2023/10/29 21:58:27;;;;;;;4.85;1.20;;;;;;;;;;8047743;29;20158;-64
2023/10/29 22:02:28;;;;;;;4.83;1.00;;;;;;;;;;8046052;28;20671;-64
2023/10/29 22:06:28;;;;;;;3.45;1.08;;;;;;;;;;8050050;29;20279;-64
2023/10/29 22:10:28;;;;;;;5.70;0.93;;;;;;;;;;8033834;29;20091;-65
2023/10/29 22:14:29;;;;;;;3.63;1.30;;;;;;;;;;8042287;28;20380;-64
2023/10/29 22:18:30;;;;;;;3.95;1.33;;;;;;;;;;8045051;28;21757;-64
2023/10/29 22:22:30;;;;;;;5.25;1.13;;;;;;;;;;8048308;29;20031;-64
2023/10/29 22:26:31;;;;;;;2.85;1.10;;;;;;;;;;8054535;29;20031;-64
2023/10/29 22:30:33;;;;;;;7.07;1.00;;;;;;;;;;8058794;28;20040;-63
2023/10/29 22:34:33;;;;;;;3.90;1.10;;;;;;;;;;8056698;29;20023;-63
2023/10/29 22:38:34;;;;;;;1.87;1.00;;;;;;;;;;8052575;29;20039;-63
2023/10/29 22:42:34;;;;;;;4.00;1.00;;;;;;;;;;8052614;28;20034;-63
2023/10/29 22:46:34;;;;;;;1.85;0.80;;;;;;;;;;8050971;28;20283;-63
2023/10/29 22:50:34;;;;;;;3.70;1.08;;;;;;;;;;8055617;29;20024;-63
2023/10/29 22:54:34;;;;;;;6.82;1.00;;;;;;;;;;8054499;29;20027;-63
2023/10/29 22:58:34;;;;;;;5.45;1.35;;;;;;;;;;8053991;29;20034;-64
2023/10/29 23:02:35;;;;;;;4.57;1.00;;;;;;;;;;8055382;28;20131;-64
2023/10/29 23:06:35;;;;;;;3.67;0.98;;;;;;;;;;8053871;29;20028;-64
2023/10/29 23:10:35;;;;;;;3.42;1.00;;;;;;;;;;8050884;29;20019;-64
2023/10/29 23:14:36;;;;;;;4.32;1.13;;;;;;;;;;8049770;29;20036;-64
2023/10/29 23:18:36;;;;;;;4.70;1.23;;;;;;;;;;8054585;29;21249;-64
2023/10/29 23:22:36;;;;;;;4.28;1.40;;;;;;;;;;8050844;29;20031;-64
2023/10/29 23:26:36;;;;;;;4.57;1.53;;;;;;;;;;8054605;29;20779;-64
2023/10/29 23:30:37;;;;;;;4.63;1.30;;;;;;;;;;8055876;28;20823;-64
2023/10/29 23:34:37;;;;;;;5.43;2.30;;;;;;;;;;8052199;29;20035;-64
2023/10/29 23:38:37;;;;;;;6.10;2.97;;;;;;;;;;8049307;29;20121;-64
2023/10/29 23:42:37;;;;;;;4.35;2.85;;;;;;;;;;8048391;29;20114;-64
2023/10/29 23:46:37;;;;;;;3.35;1.30;;;;;;;;;;8047994;28;20036;-64
2023/10/29 23:50:38;;;;;;;3.15;1.50;;;;;;;;;;8048246;29;20027;-64
2023/10/29 23:54:40;;;;;;;4.47;1.80;;;;;;;;;;8045509;29;20881;-64
2023/10/29 23:58:40;;;;;;;3.30;1.55;;;;;;;;;;8048174;29;20310;-64
